Terminal Aerodrome Forecast
Issued by NWS

Home | Current Version | Previous Version | Text Only | Print | Product List | Glossary On
Versions: 1 2 3 4 5 6 7 8 9 10 11 12 13 14 15 16 17 18
372
FTUS44 KTSA 291127
TAFMLC
TAF
KMLC 291127Z 2912/3012 27010G18KT P6SM -RA VCTS BKN050CB
      TEMPO 2912/2914 VRB15G30KT 2SM TSRA OVC015CB
     FM291400 18014G20KT 6SM -SHRA BKN025
     FM291600 19014G20KT P6SM BKN050=

USA.gov is the U.S. government's official web portal to all federal, state and local government web resources and services.